createdAt,value
2018-07-03T00:02:20.789Z,55.31
2018-07-03T00:04:49.951Z,55.86
2018-07-03T00:07:19.258Z,56.13
2018-07-03T00:09:48.406Z,55.89
2018-07-03T00:12:17.558Z,56.58
2018-07-03T00:14:46.848Z,56.75
2018-07-03T00:17:15.999Z,56.52
2018-07-03T00:19:52.653Z,55.93
2018-07-03T00:22:22.480Z,56.51
2018-07-03T00:24:51.935Z,56.34
2018-07-03T00:27:21.158Z,56.39
2018-07-03T00:29:50.370Z,56.32
2018-07-03T00:32:19.540Z,56.57
2018-07-03T00:34:48.730Z,56.51
2018-07-03T00:37:17.908Z,56.61
2018-07-03T00:39:47.170Z,56.09
2018-07-03T00:42:16.430Z,56.04
2018-07-03T00:44:45.606Z,56.17
2018-07-03T00:47:14.922Z,55.94
2018-07-03T00:49:44.491Z,56.17
2018-07-03T00:52:13.749Z,56.04
2018-07-03T00:54:42.973Z,56.23
2018-07-03T00:57:12.466Z,55.95
2018-07-03T00:59:58.932Z,56.20
2018-07-03T01:02:28.144Z,55.40
2018-07-03T01:04:57.337Z,55.75
2018-07-03T01:07:26.885Z,55.50
2018-07-03T01:09:56.316Z,55.61
2018-07-03T01:12:25.502Z,55.02
2018-07-03T01:14:54.734Z,55.72
2018-07-03T01:17:23.918Z,55.83
2018-07-03T01:19:53.164Z,55.38
2018-07-03T01:22:22.321Z,55.45
2018-07-03T01:24:51.503Z,55.61
2018-07-03T01:27:21.074Z,56.28
2018-07-03T01:29:50.350Z,56.04
2018-07-03T01:32:19.524Z,56.13
2018-07-03T01:34:48.692Z,55.57
2018-07-03T01:37:17.893Z,55.47
2018-07-03T01:39:47.073Z,55.98
2018-07-03T01:42:16.295Z,56.05
2018-07-03T01:44:45.480Z,56.31
2018-07-03T01:47:14.614Z,56.24
2018-07-03T01:49:43.859Z,56.51
2018-07-03T01:52:13.036Z,56.63
2018-07-03T01:54:42.209Z,56.52
2018-07-03T01:57:11.349Z,56.23
2018-07-03T01:59:40.612Z,56.81
2018-07-03T02:02:10.348Z,57.06
2018-07-03T02:04:39.525Z,57.30
2018-07-03T02:07:09.153Z,56.90
2018-07-03T02:09:38.911Z,56.63
2018-07-03T02:12:08.079Z,57.09
2018-07-03T02:14:37.275Z,56.86
2018-07-03T02:17:07.213Z,56.56
2018-07-03T02:19:36.407Z,56.75
2018-07-03T02:22:05.607Z,57.05
2018-07-03T02:24:34.845Z,56.44
2018-07-03T02:27:04.026Z,56.58
2018-07-03T02:29:33.593Z,57.31
2018-07-03T02:32:02.762Z,57.26
2018-07-03T02:34:31.928Z,56.73
2018-07-03T02:37:01.111Z,56.76
2018-07-03T02:39:30.317Z,56.90
2018-07-03T02:41:59.574Z,57.20
2018-07-03T02:44:28.884Z,57.60
2018-07-03T02:46:58.630Z,56.99
2018-07-03T02:49:28.185Z,57.69
2018-07-03T02:51:57.546Z,57.40
2018-07-03T02:54:26.712Z,57.52
2018-07-03T02:56:56.273Z,56.89
2018-07-03T02:59:25.456Z,57.51
2018-07-03T03:01:54.678Z,57.12
2018-07-03T03:04:23.911Z,56.83
2018-07-03T03:06:53.111Z,56.96
2018-07-03T03:09:22.294Z,56.34
2018-07-03T03:11:51.437Z,56.70
2018-07-03T03:14:20.708Z,56.67
2018-07-03T03:16:50.000Z,56.27
2018-07-03T03:19:19.322Z,56.05
2018-07-03T03:21:48.914Z,56.26
2018-07-03T03:24:18.422Z,55.70
2018-07-03T03:26:47.616Z,55.40
2018-07-03T03:29:16.928Z,55.26
2018-07-03T03:31:46.126Z,54.87
2018-07-03T03:34:15.298Z,55.06
2018-07-03T03:36:44.567Z,54.35
2018-07-03T03:39:13.926Z,54.29
2018-07-03T03:41:43.136Z,54.30
2018-07-03T03:44:12.340Z,54.19
2018-07-03T03:46:41.483Z,54.24
2018-07-03T03:49:10.666Z,54.02
2018-07-03T03:51:39.863Z,53.32
2018-07-03T03:54:09.304Z,52.29
2018-07-03T03:56:38.605Z,48.94
2018-07-03T03:59:07.818Z,45.56
2018-07-03T04:01:37.035Z,41.84
2018-07-03T04:04:06.371Z,38.81
2018-07-03T04:06:35.567Z,36.65
2018-07-03T04:09:07.321Z,35.69
2018-07-03T04:11:36.529Z,33.49
2018-07-03T04:14:06.053Z,32.36
2018-07-03T04:16:35.294Z,31.37
2018-07-03T04:19:04.480Z,30.00
2018-07-03T04:21:33.894Z,29.34
2018-07-03T04:24:03.481Z,28.83
2018-07-03T04:26:32.769Z,27.97
2018-07-03T04:29:02.237Z,27.00
2018-07-03T04:31:32.102Z,26.14
2018-07-03T04:34:01.455Z,25.58
2018-07-03T04:36:30.609Z,25.09
2018-07-03T04:38:59.831Z,25.02
2018-07-03T04:41:29.213Z,24.71
2018-07-03T04:43:58.701Z,23.97
2018-07-03T04:46:28.186Z,23.40
2018-07-03T04:48:57.648Z,23.44
2018-07-03T04:51:27.310Z,23.38
2018-07-03T04:53:57.084Z,22.78
2018-07-03T04:56:26.423Z,22.69
2018-07-03T04:58:56.075Z,22.51
2018-07-03T05:01:25.414Z,21.88
2018-07-03T05:03:54.936Z,21.20
2018-07-03T05:06:24.099Z,21.40
2018-07-03T05:08:53.230Z,21.18
2018-07-03T05:11:22.378Z,20.42
2018-07-03T05:13:51.624Z,20.72
2018-07-03T05:16:20.824Z,19.98
2018-07-03T05:18:50.077Z,19.76
2018-07-03T05:21:19.299Z,19.97
2018-07-03T05:23:48.402Z,19.40
2018-07-03T05:26:17.666Z,19.42
2018-07-03T05:28:46.819Z,18.88
2018-07-03T05:31:16.007Z,19.85
2018-07-03T05:33:45.159Z,19.53
2018-07-03T05:36:14.350Z,18.89
2018-07-03T05:38:43.502Z,19.54
2018-07-03T05:41:12.666Z,18.71
2018-07-03T05:43:41.842Z,18.61
2018-07-03T05:46:11.206Z,18.14
2018-07-03T05:48:40.362Z,18.42
2018-07-03T05:51:09.598Z,17.80
2018-07-03T05:53:38.772Z,18.17
2018-07-03T05:56:08.135Z,18.43
2018-07-03T05:58:37.398Z,18.25
2018-07-03T06:01:07.214Z,17.54
2018-07-03T06:03:36.594Z,17.66
2018-07-03T06:06:05.847Z,17.86
2018-07-03T06:08:35.041Z,17.58
2018-07-03T06:11:04.205Z,17.14
2018-07-03T06:13:33.331Z,17.26
2018-07-03T06:16:02.534Z,17.01
2018-07-03T06:18:31.685Z,17.13
2018-07-03T06:21:01.108Z,16.69
2018-07-03T06:23:30.269Z,16.48
2018-07-03T06:25:59.426Z,16.18
2018-07-03T06:28:28.598Z,16.59
2018-07-03T06:30:57.757Z,16.28
2018-07-03T06:33:26.951Z,16.10
2018-07-03T06:35:56.139Z,15.80
2018-07-03T06:38:25.356Z,15.34
2018-07-03T06:40:54.574Z,15.61
2018-07-03T06:43:23.734Z,15.29
2018-07-03T06:45:53.000Z,15.26
2018-07-03T06:48:22.123Z,15.48
2018-07-03T06:50:51.323Z,15.20
2018-07-03T06:53:20.525Z,14.91
2018-07-03T06:55:49.501Z,14.81
2018-07-03T06:58:18.859Z,14.09
2018-07-03T07:00:48.067Z,14.34
2018-07-03T07:03:17.290Z,14.14
2018-07-03T07:05:46.669Z,14.06
2018-07-03T07:08:15.825Z,13.68
2018-07-03T07:10:45.023Z,13.53
2018-07-03T07:13:14.227Z,13.43
2018-07-03T07:15:44.065Z,13.47
2018-07-03T07:18:13.402Z,13.37
2018-07-03T07:20:42.646Z,13.85
2018-07-03T07:23:12.133Z,13.52
2018-07-03T07:25:41.542Z,13.27
2018-07-03T07:28:10.864Z,13.32
2018-07-03T07:30:40.065Z,13.05
2018-07-03T07:33:09.275Z,13.01
2018-07-03T07:35:38.475Z,13.04
2018-07-03T07:38:07.948Z,13.27
2018-07-03T07:40:37.254Z,13.64
2018-07-03T07:43:06.558Z,13.86
2018-07-03T07:45:35.742Z,13.39
2018-07-03T07:48:04.980Z,13.17
2018-07-03T07:50:34.209Z,13.24
2018-07-03T07:53:03.585Z,13.34
2018-07-03T07:55:32.829Z,13.59
2018-07-03T07:58:02.045Z,13.45
2018-07-03T08:00:31.257Z,13.44
2018-07-03T08:03:00.483Z,13.14
2018-07-03T08:05:29.998Z,13.15
2018-07-03T08:07:59.232Z,12.76
2018-07-03T08:10:28.426Z,12.66
2018-07-03T08:12:57.597Z,12.45
2018-07-03T08:15:26.823Z,12.52
2018-07-03T08:17:56.030Z,11.95
2018-07-03T08:20:25.314Z,11.83
2018-07-03T08:22:54.873Z,11.97
2018-07-03T08:25:24.081Z,11.88
2018-07-03T08:27:53.316Z,12.16
2018-07-03T08:30:22.514Z,11.99
2018-07-03T08:32:51.717Z,12.03
2018-07-03T08:35:20.922Z,11.46
2018-07-03T08:37:49.929Z,11.59
2018-07-03T08:40:19.232Z,11.96
2018-07-03T08:42:48.463Z,11.88
2018-07-03T08:45:17.618Z,11.57
2018-07-03T08:47:46.848Z,11.57
2018-07-03T08:50:16.612Z,11.66
2018-07-03T08:52:45.786Z,11.71
2018-07-03T08:55:15.236Z,11.63
2018-07-03T08:57:44.498Z,11.78
2018-07-03T09:00:13.735Z,11.30
2018-07-03T09:02:43.092Z,11.88
2018-07-03T09:05:12.321Z,11.88
2018-07-03T09:07:41.558Z,11.48
2018-07-03T09:10:10.857Z,11.32
2018-07-03T09:12:40.156Z,11.19
2018-07-03T09:15:09.764Z,11.04
2018-07-03T09:17:40.485Z,11.46
2018-07-03T09:20:09.640Z,11.69
2018-07-03T09:22:40.784Z,11.86
2018-07-03T09:25:10.158Z,11.76
2018-07-03T09:27:39.308Z,11.86
2018-07-03T09:30:08.714Z,12.08
2018-07-03T09:32:37.966Z,12.10
2018-07-03T09:35:07.136Z,12.21
2018-07-03T09:37:36.324Z,11.81
2018-07-03T09:40:06.092Z,12.07
2018-07-03T09:42:35.326Z,12.04
2018-07-03T09:45:05.250Z,11.92
2018-07-03T09:47:34.429Z,11.93
2018-07-03T09:50:03.647Z,11.89
2018-07-03T09:52:33.822Z,12.07
2018-07-03T09:55:03.038Z,12.05
2018-07-03T09:57:32.483Z,11.89
2018-07-03T10:00:01.696Z,12.04
2018-07-03T10:02:30.914Z,11.97
2018-07-03T10:05:00.148Z,12.02
2018-07-03T10:07:29.347Z,12.21
2018-07-03T10:09:58.546Z,12.27
2018-07-03T10:12:27.839Z,12.41
2018-07-03T10:14:57.050Z,12.55
2018-07-03T10:17:26.310Z,12.71
2018-07-03T10:19:55.537Z,12.52
2018-07-03T10:22:24.718Z,12.69
2018-07-03T10:24:53.881Z,12.73
2018-07-03T10:27:25.000Z,12.49
2018-07-03T10:29:54.306Z,12.24
2018-07-03T10:32:23.684Z,12.42
2018-07-03T10:34:52.931Z,12.67
2018-07-03T10:37:22.177Z,12.89
2018-07-03T10:39:52.424Z,13.28
2018-07-03T10:42:21.769Z,13.47
2018-07-03T10:44:50.945Z,13.97
2018-07-03T10:47:20.156Z,14.32
2018-07-03T10:49:49.293Z,14.35
2018-07-03T10:52:18.410Z,14.51
2018-07-03T10:54:47.544Z,14.79
2018-07-03T10:57:16.969Z,15.46
2018-07-03T10:59:46.150Z,15.33
2018-07-03T11:02:15.326Z,16.17
2018-07-03T11:04:44.488Z,15.87
2018-07-03T11:07:13.626Z,16.09
2018-07-03T11:09:42.806Z,16.69
2018-07-03T11:12:12.019Z,16.93
2018-07-03T11:14:41.137Z,16.32
2018-07-03T11:17:10.283Z,16.82
2018-07-03T11:19:39.442Z,17.80
2018-07-03T11:22:08.580Z,18.19
2018-07-03T11:24:37.844Z,18.61
2018-07-03T11:27:07.085Z,18.81
2018-07-03T11:29:36.226Z,18.60
2018-07-03T11:32:05.393Z,18.88
2018-07-03T11:34:34.578Z,20.23
2018-07-03T11:37:03.842Z,19.47
2018-07-03T11:39:33.041Z,20.43
2018-07-03T11:42:02.214Z,20.90
2018-07-03T11:44:31.835Z,20.45
2018-07-03T11:47:01.068Z,20.47
2018-07-03T11:49:30.302Z,21.58
2018-07-03T11:51:59.467Z,21.51
2018-07-03T11:54:30.682Z,21.52
2018-07-03T11:56:59.826Z,21.80
2018-07-03T11:59:29.194Z,22.17
2018-07-03T12:01:58.345Z,21.99
2018-07-03T12:04:27.638Z,22.31
2018-07-03T12:06:57.438Z,23.43
2018-07-03T12:09:26.643Z,22.95
2018-07-03T12:11:55.773Z,23.43
2018-07-03T12:14:24.940Z,24.08
2018-07-03T12:16:54.708Z,24.42
2018-07-03T12:19:23.849Z,24.75
2018-07-03T12:21:52.979Z,24.25
2018-07-03T12:24:22.146Z,25.18
2018-07-03T12:26:51.322Z,24.59
2018-07-03T12:29:21.218Z,25.00
2018-07-03T12:31:50.376Z,25.18
2018-07-03T12:34:19.566Z,25.75
2018-07-03T12:36:48.767Z,26.28
2018-07-03T12:39:17.836Z,25.67
2018-07-03T12:41:47.037Z,26.12
2018-07-03T12:44:16.197Z,26.36
2018-07-03T12:46:45.349Z,25.32
2018-07-03T12:49:14.523Z,26.18
2018-07-03T12:51:43.721Z,26.07
2018-07-03T12:54:12.989Z,26.39
2018-07-03T12:56:42.182Z,25.92
2018-07-03T12:59:11.738Z,25.85
2018-07-03T13:01:41.195Z,25.95
2018-07-03T13:04:10.356Z,26.27
2018-07-03T13:06:39.552Z,25.65
2018-07-03T13:09:11.104Z,26.48
2018-07-03T13:11:40.476Z,26.53
2018-07-03T13:14:09.882Z,25.60
2018-07-03T13:16:39.318Z,25.60
2018-07-03T13:19:08.560Z,26.42
2018-07-03T13:21:37.933Z,25.66
2018-07-03T13:24:07.155Z,25.77
2018-07-03T13:26:36.388Z,25.81
2018-07-03T13:29:05.991Z,25.66
2018-07-03T13:31:35.208Z,26.66
2018-07-03T13:34:04.453Z,26.26
2018-07-03T13:36:33.629Z,26.09
2018-07-03T13:39:03.359Z,26.19
2018-07-03T13:41:32.590Z,25.79
2018-07-03T13:44:01.809Z,25.24
2018-07-03T13:46:32.746Z,25.27
2018-07-03T13:49:02.342Z,25.89
2018-07-03T13:51:31.593Z,26.16
2018-07-03T13:54:00.786Z,25.80
2018-07-03T13:56:29.929Z,26.27
2018-07-03T13:58:59.066Z,26.22
2018-07-03T14:01:28.196Z,25.62
2018-07-03T14:03:57.310Z,26.24
2018-07-03T14:06:26.556Z,26.37
2018-07-03T14:08:55.738Z,26.38
2018-07-03T14:11:24.927Z,26.57
2018-07-03T14:13:54.423Z,26.62
2018-07-03T14:16:23.569Z,26.65
2018-07-03T14:18:52.718Z,25.93
2018-07-03T14:21:21.862Z,26.54
2018-07-03T14:23:51.062Z,26.39
2018-07-03T14:26:20.311Z,26.34
2018-07-03T14:28:49.459Z,25.43
2018-07-03T14:31:18.642Z,25.75
2018-07-03T14:33:47.830Z,26.29
2018-07-03T14:36:17.061Z,25.92
2018-07-03T14:38:46.215Z,25.67
2018-07-03T14:41:16.288Z,26.38
2018-07-03T14:43:45.439Z,25.52
2018-07-03T14:46:14.654Z,26.35
2018-07-03T14:48:43.792Z,25.58
2018-07-03T14:51:12.949Z,25.56
2018-07-03T14:53:42.130Z,26.35
2018-07-03T14:56:11.264Z,26.43
2018-07-03T14:58:40.372Z,26.22
2018-07-03T15:01:09.505Z,25.55
2018-07-03T15:03:38.794Z,26.07
2018-07-03T15:06:07.990Z,25.30
2018-07-03T15:08:37.177Z,25.98
2018-07-03T15:11:06.671Z,25.45
2018-07-03T15:13:35.807Z,26.17
2018-07-03T15:16:04.937Z,25.39
2018-07-03T15:18:40.353Z,26.13
2018-07-03T15:21:09.630Z,25.67
2018-07-03T15:23:38.764Z,26.00
2018-07-03T15:26:07.933Z,26.01
2018-07-03T15:28:37.155Z,25.23
2018-07-03T15:31:06.370Z,25.79
2018-07-03T15:33:35.733Z,24.82
2018-07-03T15:36:04.938Z,25.44
2018-07-03T15:38:34.088Z,25.00
2018-07-03T15:41:03.229Z,25.87
2018-07-03T15:43:32.773Z,24.95
2018-07-03T15:46:01.920Z,25.33
2018-07-03T15:48:31.084Z,24.39
2018-07-03T15:51:00.244Z,25.05
2018-07-03T15:53:29.395Z,25.12
2018-07-03T15:55:58.661Z,25.13
2018-07-03T15:58:27.809Z,25.35
2018-07-03T16:00:56.990Z,25.20
2018-07-03T16:05:45.410Z,24.58
2018-07-03T16:09:06.987Z,24.42
2018-07-03T16:11:37.308Z,24.50
2018-07-03T16:14:07.430Z,24.72
2018-07-03T16:16:36.590Z,25.41
2018-07-03T16:19:11.486Z,24.78
2018-07-03T16:21:40.625Z,25.31
2018-07-03T16:24:10.267Z,24.62
2018-07-03T16:26:39.788Z,25.42
2018-07-03T16:29:11.214Z,25.42
2018-07-03T16:31:40.532Z,24.98
2018-07-03T16:34:09.878Z,25.80
2018-07-03T16:36:39.022Z,25.22
2018-07-03T16:39:11.436Z,25.20
2018-07-03T16:41:40.714Z,25.48
2018-07-03T16:44:10.601Z,25.12
2018-07-03T16:46:40.306Z,25.08
2018-07-03T16:49:09.454Z,25.89
2018-07-03T16:51:38.714Z,26.00
2018-07-03T16:54:08.063Z,25.23
2018-07-03T16:56:37.205Z,25.33
2018-07-03T16:59:06.517Z,26.12
2018-07-03T17:01:35.687Z,26.15
2018-07-03T17:04:04.889Z,26.11
2018-07-03T17:06:34.042Z,25.89
2018-07-03T17:09:03.633Z,26.39
2018-07-03T17:11:32.877Z,26.63
2018-07-03T17:14:02.199Z,25.68
2018-07-03T17:16:33.075Z,26.47
2018-07-03T17:19:07.811Z,26.43
2018-07-03T17:21:37.205Z,26.25
2018-07-03T17:24:06.405Z,26.05
2018-07-03T17:26:35.578Z,26.72
2018-07-03T17:29:04.854Z,26.51
2018-07-03T17:31:34.042Z,26.11
2018-07-03T17:34:03.355Z,26.46
2018-07-03T17:36:32.450Z,26.36
2018-07-03T17:39:18.167Z,26.57
2018-07-03T17:42:04.700Z,26.56
2018-07-03T17:44:49.741Z,26.62
2018-07-03T17:47:18.861Z,27.41
2018-07-03T17:49:48.058Z,27.26
2018-07-03T17:52:17.236Z,27.77
2018-07-03T17:54:46.453Z,28.07
2018-07-03T17:57:15.706Z,28.43
2018-07-03T17:59:44.836Z,28.70
2018-07-03T18:02:13.995Z,28.08
2018-07-03T18:04:43.241Z,28.35
2018-07-03T18:07:12.494Z,28.76
2018-07-03T18:09:41.992Z,29.26
2018-07-03T18:12:11.131Z,29.20
2018-07-03T18:14:40.305Z,28.80
2018-07-03T18:17:09.490Z,29.34
2018-07-03T18:19:44.854Z,29.65
2018-07-03T18:22:13.979Z,28.99
2018-07-03T18:24:43.244Z,29.04
2018-07-03T18:27:12.306Z,29.51
2018-07-03T18:29:41.712Z,29.46
2018-07-03T18:32:10.805Z,29.20
2018-07-03T18:34:40.018Z,30.12
2018-07-03T18:37:09.159Z,29.64
2018-07-03T18:39:38.357Z,29.67
2018-07-03T18:42:07.477Z,30.56
2018-07-03T18:44:36.609Z,30.44
2018-07-03T18:47:05.822Z,30.16
2018-07-03T18:49:34.924Z,30.50
2018-07-03T18:52:04.133Z,30.44
2018-07-03T18:54:33.414Z,31.05
2018-07-03T18:57:02.631Z,31.17
2018-07-03T18:59:31.785Z,30.60
2018-07-03T19:02:00.951Z,31.54
2018-07-03T19:04:30.237Z,31.33
2018-07-03T19:06:59.528Z,31.53
2018-07-03T19:09:29.334Z,30.92
2018-07-03T19:11:58.508Z,31.16
2018-07-03T19:14:27.682Z,31.97
2018-07-03T19:16:56.841Z,31.51
2018-07-03T19:19:25.946Z,32.42
2018-07-03T19:21:55.070Z,32.54
2018-07-03T19:24:24.188Z,31.98
2018-07-03T19:26:53.340Z,32.92
2018-07-03T19:29:22.511Z,32.47
2018-07-03T19:31:51.631Z,32.46
2018-07-03T19:34:20.792Z,32.84
2018-07-03T19:36:50.026Z,32.42
2018-07-03T19:39:19.182Z,33.25
2018-07-03T19:41:48.121Z,32.76
2018-07-03T19:44:17.259Z,33.48
2018-07-03T19:46:46.414Z,33.79
2018-07-03T19:49:15.632Z,33.18
2018-07-03T19:51:45.045Z,33.96
2018-07-03T19:54:14.181Z,33.49
2018-07-03T19:56:44.657Z,34.10
2018-07-03T19:59:13.839Z,34.80
2018-07-03T20:01:43.024Z,34.41
2018-07-03T20:04:12.706Z,34.51
2018-07-03T20:06:43.588Z,34.98
2018-07-03T20:09:13.674Z,35.38
2018-07-03T20:11:43.105Z,35.34
2018-07-03T20:14:12.261Z,35.01
2018-07-03T20:16:42.438Z,35.82
2018-07-03T20:19:12.769Z,35.20
2018-07-03T20:21:44.864Z,35.24
2018-07-03T20:24:15.012Z,36.19
2018-07-03T20:26:44.653Z,35.44
2018-07-03T20:29:14.654Z,35.95
2018-07-03T20:31:44.041Z,36.22
2018-07-03T20:34:14.593Z,35.87
2018-07-03T20:36:43.920Z,36.58
2018-07-03T20:39:13.149Z,36.67
2018-07-03T20:41:42.550Z,37.18
2018-07-03T20:44:11.693Z,36.69
2018-07-03T20:46:40.969Z,36.87
2018-07-03T20:49:10.389Z,37.79
2018-07-03T20:51:39.502Z,37.21
2018-07-03T20:54:09.993Z,37.53
2018-07-03T20:56:39.657Z,37.76
2018-07-03T20:59:09.182Z,38.17
2018-07-03T21:01:38.513Z,38.76
2018-07-03T21:04:07.783Z,38.71
2018-07-03T21:06:36.947Z,39.22
2018-07-03T21:09:08.969Z,39.60
2018-07-03T21:11:40.160Z,39.76
2018-07-03T21:14:09.414Z,39.65
2018-07-03T21:16:38.649Z,40.60
2018-07-03T21:19:07.801Z,40.69
2018-07-03T21:21:36.958Z,41.49
2018-07-03T21:24:06.405Z,41.62
2018-07-03T21:26:35.562Z,42.41
2018-07-03T21:29:04.783Z,42.61
2018-07-03T21:31:34.212Z,42.66
2018-07-03T21:34:04.743Z,43.29
2018-07-03T21:36:33.935Z,43.45
2018-07-03T21:39:03.252Z,44.17
2018-07-03T21:41:32.540Z,44.01
2018-07-03T21:44:01.878Z,43.96
2018-07-03T21:46:31.842Z,43.98
2018-07-03T21:49:02.362Z,44.04
2018-07-03T21:51:31.604Z,44.87
2018-07-03T21:54:00.851Z,45.00
2018-07-03T21:56:30.178Z,44.30
2018-07-03T21:58:59.403Z,45.17
2018-07-03T22:01:28.568Z,44.88
2018-07-03T22:03:57.730Z,45.67
2018-07-03T22:06:27.658Z,45.31
2018-07-03T22:08:56.780Z,45.14
2018-07-03T22:11:26.000Z,45.83
2018-07-03T22:13:55.116Z,45.92
2018-07-03T22:16:24.272Z,45.48
2018-07-03T22:18:54.508Z,46.49
2018-07-03T22:21:23.734Z,46.27
2018-07-03T22:23:52.999Z,46.87
2018-07-03T22:26:22.168Z,46.90
2018-07-03T22:28:52.313Z,46.90
2018-07-03T22:31:21.530Z,47.83
2018-07-03T22:33:50.839Z,48.25
2018-07-03T22:36:20.504Z,48.16
2018-07-03T22:38:49.656Z,48.21
2018-07-03T22:41:19.023Z,48.70
2018-07-03T22:43:48.168Z,48.52
2018-07-03T22:46:17.309Z,48.87
2018-07-03T22:48:52.840Z,48.82
2018-07-03T22:51:22.178Z,48.37
2018-07-03T22:53:51.712Z,48.79
2018-07-03T22:56:21.652Z,48.73
2018-07-03T22:58:50.830Z,49.28
2018-07-03T23:01:19.990Z,49.13
2018-07-03T23:03:49.313Z,49.18
2018-07-03T23:06:18.466Z,49.45
2018-07-03T23:08:47.825Z,49.16
2018-07-03T23:11:17.362Z,49.21
2018-07-03T23:13:46.457Z,49.08
2018-07-03T23:16:15.675Z,49.31
2018-07-03T23:18:45.286Z,50.10
2018-07-03T23:21:14.459Z,49.35
2018-07-03T23:23:43.660Z,49.42
2018-07-03T23:26:12.890Z,49.55
2018-07-03T23:28:42.245Z,49.43
2018-07-03T23:31:11.450Z,49.39
2018-07-03T23:33:40.735Z,50.25
2018-07-03T23:36:09.949Z,50.16
2018-07-03T23:38:39.252Z,50.10
2018-07-03T23:41:08.599Z,49.78
2018-07-03T23:43:37.748Z,49.92
2018-07-03T23:46:05.823Z,49.84
2018-07-03T23:48:52.199Z,50.17
2018-07-03T23:51:38.379Z,49.78
2018-07-03T23:54:24.733Z,50.23
2018-07-03T23:57:11.645Z,49.55
2018-07-03T23:59:58.290Z,49.80
